Time;durP1;ratioP1;P1;durP2;ratioP2;P2;SDS_P1;SDS_P2;PMS_P1;PMS_P2;Temp;Humidity;BMP_temperature;BMP_pressure;BME280_temperature;BME280_humidity;BME280_pressure;Samples;Min_cycle;Max_cycle;Signal;HPM_P1;HPM_P2
2021/10/02 00:31:11;;;;;;;6.62;4.60;;;;;;;21.95;54.87;101852.58;1720243;81;21493;-55
2021/10/02 00:45:46;;;;;;;6.37;4.37;;;;;;;21.81;54.91;101821.45;1767223;80;21054;-55
2021/10/02 00:48:12;;;;;;;7.22;4.50;;;;;;;21.80;54.91;101821.20;1725403;81;20875;-54
2021/10/02 00:50:39;;;;;;;6.35;4.70;;;;;;;21.81;54.91;101815.91;1702552;81;20937;-55
2021/10/02 00:53:05;;;;;;;6.60;4.40;;;;;;;21.80;54.91;101818.44;1760906;80;21603;-55
2021/10/02 00:55:31;;;;;;;5.67;4.50;;;;;;;21.79;54.91;101813.19;1721392;81;20926;-54
2021/10/02 00:57:57;;;;;;;5.42;4.20;;;;;;;21.79;54.91;101811.25;1780400;79;20975;-55
2021/10/02 01:00:25;;;;;;;4.70;3.80;;;;;;;21.79;54.91;101811.25;1778757;79;21596;-54
2021/10/02 01:03:02;;;;;;;7.40;4.67;;;;;;;21.78;54.92;101808.20;1775880;80;21953;-53
2021/10/02 01:05:43;;;;;;;6.72;4.67;;;;;;;21.78;54.93;101799.90;1744846;79;21094;-54
2021/10/02 01:08:37;;;;;;;6.28;4.33;;;;;;;21.78;54.93;101795.74;1772973;80;26871;-52
2021/10/02 01:11:18;;;;;;;4.80;3.95;;;;;;;21.77;54.92;101796.86;1771800;79;21084;-53
2021/10/02 01:13:50;;;;;;;;;;;;;;;21.77;54.92;101793.27;1772922;80;21112;-52
2021/10/02 01:16:28;;;;;;;5.92;4.30;;;;;;;21.76;54.93;101793.85;1770917;80;21164;-53
2021/10/02 01:19:32;;;;;;;6.37;4.53;;;;;;;21.74;54.96;101791.93;1770489;80;22324;-54
2021/10/02 01:22:09;;;;;;;5.58;4.17;;;;;;;21.72;54.94;101795.58;1775617;80;21019;-53
2021/10/02 01:25:15;;;;;;;5.28;4.12;;;;;;;21.73;54.94;101793.61;1774458;80;21537;-53
2021/10/02 01:28:04;;;;;;;8.08;4.70;;;;;;;21.71;54.96;101799.47;1772217;80;21041;-53
2021/10/02 01:30:57;;;;;;;6.30;4.22;;;;;;;21.70;54.93;101792.27;1744290;80;22205;-54
2021/10/02 01:34:06;;;;;;;7.03;4.30;;;;;;;21.69;54.94;101791.17;1774806;80;21090;-53
2021/10/02 01:36:39;;;;;;;6.10;4.47;;;;;;;21.68;54.94;101791.77;1760435;80;21512;-54
2021/10/02 01:47:31;;;;;;;6.08;4.10;;;;;;;21.65;54.94;101794.29;1713910;81;21064;-54
2021/10/02 01:49:58;;;;;;;5.60;3.75;;;;;;;21.65;54.93;101793.73;1781587;80;21105;-54
2021/10/02 01:52:32;;;;;;;6.17;4.50;;;;;;;21.64;54.96;101793.47;1731247;81;21048;-54
2021/10/02 01:54:58;;;;;;;7.15;3.95;;;;;;;21.64;54.95;101794.85;1782184;79;21124;-54
2021/10/02 01:57:34;;;;;;;5.87;3.90;;;;;;;21.62;54.94;101794.34;1776511;80;21128;-54
2021/10/02 02:00:02;;;;;;;7.08;4.42;;;;;;;21.62;54.95;101802.66;1744742;80;21069;-54
2021/10/02 02:02:29;;;;;;;6.47;4.17;;;;;;;21.62;54.94;101795.73;1778348;80;21072;-54
2021/10/02 02:04:55;;;;;;;6.45;3.83;;;;;;;21.62;54.96;101788.80;1780233;80;21048;-54
2021/10/02 02:07:22;;;;;;;6.83;3.90;;;;;;;21.62;54.95;101797.67;1777645;80;21424;-54
2021/10/02 02:09:48;;;;;;;5.08;3.42;;;;;;;21.62;54.96;101792.96;1698937;81;21228;-53
2021/10/02 02:12:14;;;;;;;5.12;3.83;;;;;;;21.62;54.96;101790.75;1731014;81;21057;-54
2021/10/02 02:14:41;;;;;;;5.47;4.03;;;;;;;21.62;54.95;101792.13;1686713;81;21032;-54
2021/10/02 02:17:08;;;;;;;5.95;3.90;;;;;;;21.62;54.95;101790.75;1715533;81;21058;-54
2021/10/02 02:19:34;;;;;;;5.10;3.92;;;;;;;21.60;54.93;101788.27;1734416;81;21072;-54
2021/10/02 02:22:02;;;;;;;4.55;3.85;;;;;;;21.60;54.93;101784.11;1724475;81;21272;-54
2021/10/02 02:24:28;;;;;;;5.60;3.50;;;;;;;21.61;54.92;101789.92;1738144;81;21092;-54
2021/10/02 02:26:54;;;;;;;4.87;3.70;;;;;;;21.61;54.92;101788.53;1728050;81;21481;-54
2021/10/02 02:29:20;;;;;;;5.08;3.55;;;;;;;21.61;54.93;101789.09;1727407;81;21120;-54
2021/10/02 02:31:46;;;;;;;4.85;3.75;;;;;;;21.59;54.92;101776.95;1729084;81;21583;-54
2021/10/02 02:34:13;;;;;;;4.92;3.65;;;;;;;21.60;54.92;101779.96;1734166;81;22086;-54
2021/10/02 02:36:38;;;;;;;5.17;3.90;;;;;;;21.59;54.92;101778.90;1726215;81;21040;-54
2021/10/02 02:39:05;;;;;;;4.92;3.52;;;;;;;21.58;54.90;101775.30;1664946;81;20883;-53
2021/10/02 02:41:31;;;;;;;5.60;3.55;;;;;;;21.59;54.92;101781.67;1776861;80;21081;-54
2021/10/02 02:43:57;;;;;;;5.30;3.45;;;;;;;21.58;54.90;101782.22;1778205;79;21771;-54
2021/10/02 02:46:35;;;;;;;5.12;3.62;;;;;;;21.57;54.92;101779.19;1732492;81;21483;-54
2021/10/02 02:49:22;;;;;;;4.47;3.40;;;;;;;21.55;54.89;101770.38;1724268;81;21072;-55
2021/10/02 02:52:27;;;;;;;4.85;3.33;;;;;;;21.57;54.89;101772.82;1772450;80;21837;-54
2021/10/02 02:55:04;;;;;;;5.15;3.65;;;;;;;21.55;54.87;101773.70;1700008;83;21668;-54
2021/10/02 02:57:51;;;;;;;5.17;3.62;;;;;;;21.54;54.87;101777.59;1671349;83;21106;-53
2021/10/02 03:00:19;;;;;;;5.10;3.40;;;;;;;21.53;54.88;101775.38;1710481;81;21956;-54
2021/10/02 03:02:59;;;;;;;4.22;3.22;;;;;;;21.51;54.89;101769.33;1768984;79;21042;-53
2021/10/02 03:05:25;;;;;;;3.67;3.15;;;;;;;21.51;54.88;101774.88;1771008;79;21065;-54
2021/10/02 03:08:01;;;;;;;3.60;2.83;;;;;;;21.50;54.89;101769.06;1746520;79;22418;-55
2021/10/02 03:10:28;;;;;;;3.83;3.05;;;;;;;21.50;54.89;101768.23;1772176;79;21144;-52
2021/10/02 03:12:56;;;;;;;4.08;2.85;;;;;;;21.51;54.92;101762.97;1696892;82;21091;-54
2021/10/02 03:15:22;;;;;;;4.95;3.45;;;;;;;21.52;54.94;101755.72;1780944;79;21083;-54
2021/10/02 03:17:48;;;;;;;5.17;3.25;;;;;;;21.55;54.93;101757.91;1732542;80;21622;-52
2021/10/02 03:20:15;;;;;;;4.72;2.98;;;;;;;21.57;54.93;101754.27;1777427;79;20939;-53
2021/10/02 03:22:42;;;;;;;5.80;3.20;;;;;;;21.60;54.92;101750.88;1779315;79;20995;-54
2021/10/02 03:25:09;;;;;;;3.40;2.62;;;;;;;21.63;54.90;101759.17;1774826;79;21264;-52
2021/10/02 03:27:35;;;;;;;3.77;2.77;;;;;;;21.67;54.91;101755.50;1776493;79;21032;-53
2021/10/02 03:30:02;;;;;;;5.72;3.08;;;;;;;21.70;54.91;101756.27;1731254;81;21067;-54
2021/10/02 03:32:28;;;;;;;4.42;3.02;;;;;;;21.73;54.89;101754.27;1771024;79;21001;-55
2021/10/02 03:34:54;;;;;;;4.67;2.80;;;;;;;21.76;54.88;101753.69;1771811;79;20992;-52
2021/10/02 03:37:20;;;;;;;3.90;2.92;;;;;;;21.78;54.85;101751.42;1777726;79;22165;-55
2021/10/02 03:39:46;;;;;;;2.83;2.10;;;;;;;21.82;54.84;101754.41;1771450;79;21065;-53
2021/10/02 03:42:16;;;;;;;4.10;2.67;;;;;;;21.84;54.82;101755.77;1774468;79;21055;-53
2021/10/02 03:44:46;;;;;;;3.40;2.45;;;;;;;21.87;54.84;101752.37;1737968;81;21076;-54
2021/10/02 03:47:13;;;;;;;2.90;2.25;;;;;;;21.91;54.81;101754.53;1773832;79;21153;-52
2021/10/02 03:49:39;;;;;;;2.83;2.17;;;;;;;21.93;54.81;101750.94;1767321;79;21156;-54
2021/10/02 03:52:07;;;;;;;3.02;2.12;;;;;;;21.95;54.78;101755.04;1777891;79;21361;-54
2021/10/02 03:54:33;;;;;;;2.58;2.00;;;;;;;21.98;54.77;101757.19;1739262;81;21058;-54
2021/10/02 03:57:00;;;;;;;3.40;2.15;;;;;;;22.01;54.76;101752.45;1774387;79;21111;-54
2021/10/02 03:59:26;;;;;;;3.05;2.15;;;;;;;22.03;54.73;101752.13;1745109;80;21628;-53
2021/10/02 04:01:52;;;;;;;2.65;1.87;;;;;;;22.06;54.72;101749.59;1747506;80;22218;-54
2021/10/02 04:04:18;;;;;;;2.90;2.17;;;;;;;22.08;54.71;101758.41;1757024;80;21092;-54
2021/10/02 04:06:44;;;;;;;3.62;2.10;;;;;;;22.09;54.71;101754.52;1754365;80;21536;-54
2021/10/02 04:09:11;;;;;;;3.35;2.10;;;;;;;22.10;54.69;101752.02;1743740;80;20916;-53
2021/10/02 04:11:37;;;;;;;2.92;2.33;;;;;;;22.12;54.67;101751.69;1761406;80;21075;-53
2021/10/02 04:14:03;;;;;;;2.22;1.75;;;;;;;22.13;54.67;101756.94;1761711;79;21463;-54
2021/10/02 04:16:30;;;;;;;2.75;2.15;;;;;;;22.16;54.65;101755.49;1754056;80;20882;-53
2021/10/02 04:18:57;;;;;;;2.42;1.92;;;;;;;22.17;54.63;101751.60;1756437;80;21099;-53
2021/10/02 04:21:23;;;;;;;2.90;2.08;;;;;;;22.19;54.62;101760.45;1755251;80;21050;-53
2021/10/02 04:23:50;;;;;;;3.15;2.00;;;;;;;22.20;54.61;101759.30;1760045;80;21060;-55
2021/10/02 04:26:16;;;;;;;2.25;1.80;;;;;;;22.22;54.60;101763.98;1725279;82;21093;-55
2021/10/02 04:28:42;;;;;;;2.75;1.95;;;;;;;22.24;54.59;101763.09;1671807;85;21046;-55
2021/10/02 04:31:08;;;;;;;2.60;1.80;;;;;;;22.25;54.57;101764.75;1709913;82;21006;-55
2021/10/02 04:33:35;;;;;;;3.05;1.90;;;;;;;;;;1717976;82;21086;-54
2021/10/02 04:36:01;;;;;;;4.47;2.20;;;;;;;22.30;54.54;101770.20;1752810;80;21074;-55
2021/10/02 04:38:28;;;;;;;2.75;1.60;;;;;;;22.31;54.52;101769.91;1706402;82;21232;-55
2021/10/02 04:40:54;;;;;;;2.50;2.00;;;;;;;22.33;54.51;101773.18;1714297;83;21089;-55
2021/10/02 04:43:21;;;;;;;3.22;2.02;;;;;;;22.36;54.50;101771.77;1708664;83;21564;-54
2021/10/02 04:45:48;;;;;;;3.12;2.10;;;;;;;22.38;54.50;101772.83;1727419;82;21092;-55
2021/10/02 04:48:14;;;;;;;2.40;2.10;;;;;;;22.38;54.48;101768.11;1751406;79;22259;-54
2021/10/02 04:50:40;;;;;;;2.60;1.87;;;;;;;22.40;54.48;101774.19;1754414;80;21326;-54
2021/10/02 04:53:06;;;;;;;2.70;2.00;;;;;;;22.42;54.46;101772.47;1751570;80;20973;-55
2021/10/02 04:55:32;;;;;;;3.50;2.17;;;;;;;22.42;54.46;101778.84;1751973;80;20979;-55
2021/10/02 04:57:58;;;;;;;3.33;2.17;;;;;;;22.43;54.44;101776.89;1763137;80;20907;-54
2021/10/02 05:00:24;;;;;;;2.50;1.80;;;;;;;22.44;54.43;101775.21;1768785;80;21844;-54
2021/10/02 05:02:50;;;;;;;3.92;2.12;;;;;;;22.45;54.44;101772.67;1768497;80;21295;-54
2021/10/02 05:05:16;;;;;;;2.92;1.87;;;;;;;22.45;54.43;101770.49;1767672;80;21048;-54
2021/10/02 05:07:42;;;;;;;3.15;1.95;;;;;;;22.46;54.41;101777.09;1725479;81;20918;-50
2021/10/02 05:10:09;;;;;;;3.17;2.27;;;;;;;22.47;54.39;101774.59;1721502;80;21092;-52
2021/10/02 05:12:35;;;;;;;2.85;1.98;;;;;;;22.47;54.38;101780.70;1732096;81;21130;-50
2021/10/02 05:15:01;;;;;;;3.85;2.15;;;;;;;22.48;54.39;101781.79;1732266;81;21330;-48
2021/10/02 05:17:27;;;;;;;56.50;17.92;;;;;;;22.49;54.41;101780.64;1736667;81;21643;-52
2021/10/02 05:19:54;;;;;;;93.62;32.75;;;;;;;22.48;54.42;101773.47;1724663;80;21046;-46
2021/10/02 05:22:20;;;;;;;164.15;51.90;;;;;;;22.50;54.42;101780.91;1722496;81;21139;-49
2021/10/02 05:24:46;;;;;;;265.52;99.45;;;;;;;22.49;54.46;101782.02;1769885;80;21151;-44
2021/10/02 05:27:12;;;;;;;133.87;38.92;;;;;;;22.48;54.49;101776.80;1714894;81;21585;-47
2021/10/02 05:29:40;;;;;;;22.13;8.70;;;;;;;22.49;54.50;101773.70;1722478;81;21092;-55
2021/10/02 05:32:07;;;;;;;62.80;14.40;;;;;;;22.50;54.51;101782.84;1717060;81;21100;-52
2021/10/02 05:34:33;;;;;;;12.55;3.70;;;;;;;22.49;54.52;101783.41;1713432;81;21072;-53
2021/10/02 05:36:59;;;;;;;3.77;2.12;;;;;;;22.51;54.53;101787.27;1725129;81;21711;-53
2021/10/02 05:39:25;;;;;;;2.77;2.05;;;;;;;22.50;54.57;101787.83;1724010;81;21115;-54
2021/10/02 05:41:52;;;;;;;2.42;1.90;;;;;;;22.49;54.58;101791.73;1723080;81;21537;-54
2021/10/02 05:44:18;;;;;;;3.60;2.20;;;;;;;22.49;54.58;101791.73;1724900;81;21147;-48
2021/10/02 05:46:45;;;;;;;192.72;64.03;;;;;;;22.48;54.61;101794.27;1781595;80;21481;-47
2021/10/02 05:49:11;;;;;;;292.37;99.83;;;;;;;22.48;54.63;101791.49;1693711;83;21068;-47
2021/10/02 05:51:37;;;;;;;742.05;290.43;;;;;;;22.48;54.64;101792.87;1698020;83;21363;-46
2021/10/02 05:54:03;;;;;;;1074.48;448.93;;;;;;;22.49;54.68;101797.87;1724832;81;21271;-49
2021/10/02 05:56:29;;;;;;;672.77;244.90;;;;;;;22.49;54.71;101795.09;1727203;81;20870;-47
2021/10/02 05:58:55;;;;;;;845.03;330.10;;;;;;;22.47;54.70;101792.61;1707375;81;21539;-50
2021/10/02 06:01:21;;;;;;;182.15;50.80;;;;;;;22.48;54.74;101800.38;1698593;82;21002;-45
2021/10/02 06:03:47;;;;;;;116.55;31.05;;;;;;;22.47;54.74;101802.32;1698923;82;21379;-46
2021/10/02 06:06:14;;;;;;;17.05;5.75;;;;;;;22.47;54.75;101804.27;1695546;82;20879;-46
2021/10/02 06:08:40;;;;;;;6.58;3.05;;;;;;;22.48;54.78;101798.98;1698949;82;21557;-44
2021/10/02 06:11:06;;;;;;;4.05;2.42;;;;;;;22.48;54.77;101803.15;1697644;82;20899;-45
2021/10/02 06:13:35;;;;;;;232.95;56.23;;;;;;;22.48;54.77;101806.75;1714791;82;21278;-47
2021/10/02 06:16:01;;;;;;;60.25;14.50;;;;;;;22.48;54.75;101803.97;1717158;82;21151;-47
2021/10/02 06:18:27;;;;;;;12.82;3.85;;;;;;;22.49;54.79;101808.96;1723847;82;20901;-45
2021/10/02 06:20:53;;;;;;;289.50;100.20;;;;;;;22.49;54.77;101808.37;1711089;82;21034;-47
2021/10/02 06:23:20;;;;;;;976.37;401.18;;;;;;;22.49;54.77;101807.58;1758288;80;21048;-48
2021/10/02 06:25:46;;;;;;;680.55;239.65;;;;;;;22.48;54.77;101810.08;1765532;80;21445;-47
2021/10/02 06:28:12;;;;;;;229.45;58.73;;;;;;;22.48;54.78;101812.85;1758222;80;21263;-46
2021/10/02 06:30:38;;;;;;;863.00;322.35;;;;;;;22.47;54.78;101812.03;1754693;80;21682;-50
2021/10/02 06:33:04;;;;;;;422.87;120.45;;;;;;;22.46;54.78;101813.70;1760085;80;21125;-47
2021/10/02 06:35:30;;;;;;;429.10;127.27;;;;;;;22.46;54.78;101813.70;1760763;80;21708;-44
2021/10/02 06:37:58;;;;;;;51.70;13.00;;;;;;;22.45;54.78;101817.63;1768120;80;21022;-46
2021/10/02 06:40:25;;;;;;;646.75;261.20;;;;;;;22.45;54.78;101828.13;1758286;80;21528;-46
2021/10/02 06:42:52;;;;;;;428.25;134.55;;;;;;;22.44;54.80;101827.90;1761040;80;21130;-46
2021/10/02 06:45:19;;;;;;;298.68;82.42;;;;;;;22.44;54.79;101824.30;1767865;80;21058;-45
2021/10/02 06:47:46;;;;;;;733.98;294.25;;;;;;;22.43;54.81;101828.20;1762414;80;21509;-51
2021/10/02 06:50:12;;;;;;;344.13;102.25;;;;;;;22.42;54.82;101832.09;1761449;80;21031;-47
2021/10/02 06:52:38;;;;;;;38.98;12.13;;;;;;;22.42;54.81;101839.84;1764983;79;21045;-46
2021/10/02 06:55:07;;;;;;;10.85;3.40;;;;;;;22.41;54.81;101836.80;1769329;80;21857;-50
2021/10/02 06:57:34;;;;;;;86.20;25.37;;;;;;;22.41;54.80;101835.98;1771523;80;21013;-47
2021/10/02 07:00:00;;;;;;;73.52;18.80;;;;;;;22.40;54.79;101831.02;1763867;79;21562;-45
2021/10/02 07:02:26;;;;;;;24.10;7.90;;;;;;;22.41;54.79;101840.14;1756389;80;21016;-48
2021/10/02 07:04:52;;;;;;;521.95;165.85;;;;;;;22.40;54.80;101839.91;1764344;80;21304;-47
2021/10/02 07:07:19;;;;;;;699.30;262.55;;;;;;;22.40;54.80;101837.13;1763245;80;21699;-47
2021/10/02 07:09:46;;;;;;;111.30;31.97;;;;;;;22.39;54.80;101833.53;1762873;80;21102;-48
2021/10/02 07:12:12;;;;;;;368.00;86.95;;;;;;;22.39;54.81;101828.55;1766033;79;21520;-44
2021/10/02 07:14:39;;;;;;;60.40;13.65;;;;;;;22.40;54.79;101827.42;1763839;80;21068;-46
2021/10/02 07:17:06;;;;;;;315.12;63.13;;;;;;;22.38;54.77;101829.11;1762111;79;21697;-47
2021/10/02 07:19:32;;;;;;;389.30;95.28;;;;;;;22.39;54.77;101836.86;1768440;80;21073;-46
2021/10/02 07:21:58;;;;;;;785.13;237.12;;;;;;;22.39;54.75;101836.30;1768012;79;21026;-45
2021/10/02 07:24:24;;;;;;;191.90;46.02;;;;;;;22.38;54.75;101834.66;1754752;80;20933;-44
2021/10/02 07:26:51;;;;;;;25.95;7.37;;;;;;;22.37;54.74;101828.02;1724067;81;20925;-46
2021/10/02 07:29:18;;;;;;;149.30;33.00;;;;;;;22.37;54.71;101827.45;1769893;80;45990;-46
2021/10/02 07:31:44;;;;;;;10.55;4.45;;;;;;;22.36;54.69;101828.61;1772208;79;21056;-47
2021/10/02 07:34:10;;;;;;;6.08;2.98;;;;;;;22.36;54.69;101834.71;1763449;80;21066;-44
2021/10/02 07:36:36;;;;;;;3.77;2.42;;;;;;;22.35;54.66;101823.35;1730028;81;20878;-45
2021/10/02 07:39:03;;;;;;;4.28;2.80;;;;;;;22.34;54.65;101825.30;1713748;82;20883;-46
2021/10/02 07:41:29;;;;;;;5.62;3.47;;;;;;;22.34;54.62;101826.69;1703889;82;21132;-45
2021/10/02 07:44:00;;;;;;;7.62;5.20;;;;;;;22.33;54.61;101825.03;1723542;81;21689;-46
2021/10/02 07:46:26;;;;;;;8.33;6.35;;;;;;;22.32;54.61;101820.61;1727816;81;21591;-45
2021/10/02 07:48:52;;;;;;;8.08;5.70;;;;;;;22.31;54.65;101825.92;1718616;82;20926;-45
2021/10/02 07:51:20;;;;;;;9.43;7.00;;;;;;;22.31;54.72;101827.30;1710006;82;21058;-47
2021/10/02 07:53:47;;;;;;;9.13;7.08;;;;;;;22.31;54.76;101818.98;1714244;82;21489;-45
2021/10/02 07:56:13;;;;;;;12.50;7.87;;;;;;;22.30;54.86;101814.00;1700854;82;21041;-44
2021/10/02 07:58:39;;;;;;;10.58;7.60;;;;;;;22.30;54.92;101818.72;1765171;80;21100;-47
2021/10/02 08:01:05;;;;;;;11.05;7.95;;;;;;;22.29;55.02;101819.28;1695350;79;21527;-45
2021/10/02 08:03:31;;;;;;;92.10;32.63;;;;;;;22.30;55.08;101821.49;1780509;79;20915;-50
2021/10/02 08:05:57;;;;;;;60.12;21.20;;;;;;;22.29;55.19;101812.91;1782026;80;21293;-49
2021/10/02 08:08:23;;;;;;;54.55;19.98;;;;;;;22.29;55.26;101817.06;1738117;81;21290;-49
2021/10/02 08:10:50;;;;;;;37.03;13.60;;;;;;;22.28;55.34;101812.64;1735909;81;21040;-47
2021/10/02 08:13:17;;;;;;;43.65;16.12;;;;;;;22.32;55.41;101815.06;1731087;81;21095;-46
2021/10/02 08:15:46;;;;;;;61.55;20.68;;;;;;;22.36;55.55;101811.97;1778511;79;21513;-45
2021/10/02 08:18:14;;;;;;;74.87;24.15;;;;;;;22.39;55.72;101807.19;1775441;80;21615;-45
2021/10/02 08:20:41;;;;;;;43.95;18.52;;;;;;;22.44;55.86;101805.72;1770847;80;21487;-44
2021/10/02 08:23:07;;;;;;;34.27;14.95;;;;;;;22.47;55.95;101796.77;1776027;80;21090;-44
2021/10/02 08:25:35;;;;;;;14.20;8.20;;;;;;;22.50;55.98;101790.61;1777277;80;21090;-46
2021/10/02 08:28:04;;;;;;;23.90;10.88;;;;;;;22.53;55.94;101796.92;1785206;80;21481;-45
2021/10/02 08:30:30;;;;;;;46.75;17.35;;;;;;;22.56;55.87;101796.89;1704735;83;21630;-44
2021/10/02 08:32:57;;;;;;;53.58;19.05;;;;;;;22.57;55.83;101792.43;1782034;79;21070;-45
2021/10/02 08:35:23;;;;;;;18.85;10.38;;;;;;;22.58;55.77;101796.83;1779297;79;21262;-44
2021/10/02 08:37:50;;;;;;;18.15;9.00;;;;;;;22.59;55.69;101786.55;1783451;79;21062;-44
2021/10/02 08:40:17;;;;;;;16.82;9.55;;;;;;;22.59;55.64;101790.72;1784376;79;21097;-48
2021/10/02 08:47:53;;;;;;;34.05;17.12;;;;;;;22.55;55.55;101783.58;1790583;78;21236;-46
2021/10/02 08:50:19;;;;;;;1344.83;578.70;;;;;;;22.54;55.58;101781.10;1796675;79;21609;-48
2021/10/02 08:52:46;;;;;;;1024.72;410.32;;;;;;;22.54;55.56;101776.94;1792024;77;21003;-47
2021/10/02 08:55:13;;;;;;;687.62;258.50;;;;;;;22.52;55.57;101781.43;1797292;79;22100;-46
2021/10/02 08:57:39;;;;;;;973.50;367.48;;;;;;;22.51;55.56;101770.63;1816938;77;21075;-45
2021/10/02 09:00:13;;;;;;;233.23;67.00;;;;;;;22.49;55.58;101775.68;1830765;77;21095;-50
2021/10/02 09:02:39;;;;;;;1441.75;542.08;;;;;;;22.48;55.60;101771.26;1815117;76;21615;-48
2021/10/02 09:05:07;;;;;;;492.57;157.22;;;;;;;22.46;55.60;101769.34;1831252;77;21236;-51
2021/10/02 09:07:34;;;;;;;969.77;369.93;;;;;;;22.45;55.62;101769.90;1832142;77;21787;-48
2021/10/02 09:10:02;;;;;;;966.75;375.48;;;;;;;22.44;55.64;101771.61;1818579;77;21021;-45
2021/10/02 09:12:29;;;;;;;1744.45;610.80;;;;;;;22.43;55.68;101774.12;1817245;76;21114;-45
2021/10/02 09:14:56;;;;;;;513.95;155.82;;;;;;;22.41;55.71;101770.26;1822729;76;21587;-45
2021/10/02 09:17:23;;;;;;;1810.80;641.83;;;;;;;22.40;55.76;101773.36;1829206;76;21045;-45
2021/10/02 09:19:49;;;;;;;1429.95;534.95;;;;;;;22.39;55.76;101765.60;1826338;76;21122;-45
2021/10/02 09:22:19;;;;;;;708.20;249.10;;;;;;;22.38;55.79;101763.95;1820896;77;21552;-44
2021/10/02 09:24:45;;;;;;;208.68;63.65;;;;;;;22.37;55.84;101762.30;1810853;78;21132;-44
2021/10/02 09:27:18;;;;;;;56.00;18.60;;;;;;;22.36;55.82;101757.91;1812272;77;21506;-45
2021/10/02 09:29:50;;;;;;;21.05;11.22;;;;;;;22.36;55.83;101758.47;1825060;77;21125;-46
2021/10/02 09:32:20;;;;;;;16.80;8.93;;;;;;;22.34;55.82;101755.98;1824100;77;21081;-46
2021/10/02 09:34:52;;;;;;;13.18;9.33;;;;;;;22.33;55.79;101743.25;1823183;77;21099;-44
2021/10/02 09:37:27;;;;;;;9.05;7.42;;;;;;;22.31;55.77;101742.75;1831552;77;21032;-44
2021/10/02 09:40:06;;;;;;;9.98;6.60;;;;;;;22.31;55.76;101745.52;1773914;78;21062;-47
2021/10/02 09:42:39;;;;;;;8.25;6.70;;;;;;;22.29;55.73;101736.11;1792045;78;21267;-44
2021/10/02 09:45:09;;;;;;;9.98;7.22;;;;;;;22.29;55.73;101738.06;1805109;77;21464;-44
2021/10/02 09:47:37;;;;;;;8.35;6.33;;;;;;;;;;1798451;78;21130;-45
2021/10/02 09:50:09;;;;;;;8.20;6.22;;;;;;;22.26;55.68;101736.73;1766415;80;21043;-44
2021/10/02 09:52:39;;;;;;;7.97;5.92;;;;;;;22.26;55.67;101732.58;1760515;80;21533;-47
2021/10/02 09:55:20;;;;;;;11.53;6.53;;;;;;;22.25;55.67;101732.88;1780478;79;21122;-45
2021/10/02 09:57:51;;;;;;;16.65;8.40;;;;;;;22.24;55.62;101728.45;1781707;79;25252;-45
2021/10/02 10:00:24;;;;;;;88.90;35.03;;;;;;;22.24;55.58;101733.99;1786853;79;21071;-44
2021/10/02 10:02:50;;;;;;;61.65;27.07;;;;;;;22.23;55.53;101726.83;1777770;79;21154;-43
2021/10/02 10:05:16;;;;;;;15.23;8.65;;;;;;;22.22;55.44;101730.72;1784254;79;21137;-43
2021/10/02 10:07:52;;;;;;;104.97;35.92;;;;;;;22.21;55.34;101721.58;1782804;79;21092;-46
2021/10/02 10:10:18;;;;;;;51.80;19.15;;;;;;;22.20;55.24;101724.09;1784763;79;21127;-44
2021/10/02 10:12:45;;;;;;;21.12;10.53;;;;;;;22.20;55.11;101720.48;1779673;79;21073;-45
2021/10/02 10:15:33;;;;;;;12.10;7.35;;;;;;;22.20;54.98;101717.16;1780593;79;21080;-45
2021/10/02 10:17:59;;;;;;;10.82;7.00;;;;;;;22.19;54.89;101714.71;1779205;79;21082;-44
2021/10/02 10:20:42;;;;;;;9.33;6.05;;;;;;;22.18;54.76;101718.05;1786600;78;21055;-47
2021/10/02 10:23:09;;;;;;;1010.32;408.85;;;;;;;22.18;54.69;101710.29;1790478;78;21514;-46
2021/10/02 10:25:49;;;;;;;1190.33;493.37;;;;;;;22.19;54.61;101706.39;1749404;80;21017;-45
2021/10/02 10:28:19;;;;;;;891.30;348.85;;;;;;;22.22;54.53;101708.55;1787574;79;21514;-44
2021/10/02 10:30:47;;;;;;;1216.40;460.90;;;;;;;22.22;54.47;101707.98;1786775;78;21710;-46
2021/10/02 10:33:13;;;;;;;728.20;266.15;;;;;;;22.23;54.38;101698.55;1786291;79;21061;-46
2021/10/02 10:35:45;;;;;;;987.42;393.52;;;;;;;22.25;54.32;101696.84;1791032;78;21637;-45
2021/10/02 10:38:15;;;;;;;434.35;126.12;;;;;;;22.26;54.23;101698.48;1785534;79;21441;-45
2021/10/02 10:40:41;;;;;;;279.10;76.92;;;;;;;22.27;54.17;101697.36;1788696;79;21074;-44
2021/10/02 10:43:08;;;;;;;1305.43;505.13;;;;;;;22.28;54.08;101692.88;1767556;79;21015;-43
2021/10/02 10:45:37;;;;;;;622.85;201.40;;;;;;;22.31;53.99;101701.16;1786328;79;21053;-46
2021/10/02 10:48:05;;;;;;;371.00;93.85;;;;;;;22.33;53.92;101696.11;1793061;79;21153;-44
2021/10/02 10:50:34;;;;;;;214.10;52.53;;;;;;;22.35;53.86;101697.20;1830534;77;21031;-46
2021/10/02 10:53:01;;;;;;;1455.60;585.58;;;;;;;22.35;53.76;101691.66;1830399;77;21540;-45
2021/10/02 10:55:27;;;;;;;1552.58;623.90;;;;;;;22.34;53.69;101685.29;1827231;77;21012;-46
2021/10/02 10:57:59;;;;;;;877.67;337.35;;;;;;;22.36;53.61;101680.27;1824611;77;21056;-44
2021/10/02 11:00:36;;;;;;;1025.63;388.15;;;;;;;22.36;53.52;101680.27;1830547;77;21111;-45
2021/10/02 11:03:10;;;;;;;667.60;229.25;;;;;;;22.36;53.45;101678.89;1826329;77;21390;-47
2021/10/02 11:05:43;;;;;;;268.93;70.97;;;;;;;22.37;53.34;101674.13;1815825;76;21049;-51
2021/10/02 11:08:20;;;;;;;855.38;331.95;;;;;;;22.39;53.23;101669.94;1818153;77;21071;-45
2021/10/02 11:10:50;;;;;;;190.25;54.08;;;;;;;22.41;53.09;101674.59;1833155;76;21124;-46
2021/10/02 11:13:30;;;;;;;91.02;26.87;;;;;;;22.42;52.99;101669.31;1817572;77;21962;-45
2021/10/02 11:15:56;;;;;;;32.40;11.93;;;;;;;22.43;52.87;101662.64;1830296;76;22297;-45
2021/10/02 11:18:46;;;;;;;18.73;8.03;;;;;;;22.45;52.79;101665.91;1828868;76;21108;-45
2021/10/02 11:21:18;;;;;;;17.05;8.13;;;;;;;22.47;52.68;101661.45;1796502;78;21061;-45
2021/10/02 11:24:04;;;;;;;16.77;9.00;;;;;;;22.47;52.58;101658.13;1835337;77;21097;-46
2021/10/02 11:26:49;;;;;;;13.95;8.85;;;;;;;22.47;52.51;101652.58;1817966;76;21123;-47
2021/10/02 11:29:19;;;;;;;15.08;10.00;;;;;;;22.47;52.44;101640.66;1830827;76;21053;-48
2021/10/02 11:31:50;;;;;;;18.77;10.58;;;;;;;22.47;52.42;101642.88;1830337;76;21039;-46
2021/10/02 11:34:22;;;;;;;15.15;9.43;;;;;;;22.48;52.37;101638.98;1835794;76;22113;-45
2021/10/02 11:36:56;;;;;;;275.77;80.30;;;;;;;22.47;52.35;101634.55;1830647;77;21002;-49
2021/10/02 11:39:31;;;;;;;104.85;31.15;;;;;;;22.48;52.33;101633.43;1827798;77;21316;-45
2021/10/02 11:42:01;;;;;;;120.82;37.80;;;;;;;22.49;52.30;101630.89;1829428;76;21424;-46
2021/10/02 11:44:43;;;;;;;124.82;35.88;;;;;;;22.51;52.27;101634.19;1825650;77;21093;-45
2021/10/02 11:47:34;;;;;;;148.17;40.28;;;;;;;22.53;52.25;101636.06;1810813;77;21090;-47
2021/10/02 11:50:15;;;;;;;225.10;65.80;;;;;;;22.54;52.19;101628.01;1800468;77;21626;-46
2021/10/02 11:52:53;;;;;;;342.73;95.17;;;;;;;22.56;52.14;101629.09;1837032;76;21537;-44
2021/10/02 11:55:45;;;;;;;361.07;102.53;;;;;;;22.56;52.09;101631.87;1801915;77;22381;-44
2021/10/02 11:58:15;;;;;;;206.90;56.65;;;;;;;22.55;52.05;101628.83;1794323;78;21571;-44
2021/10/02 12:00:52;;;;;;;315.87;90.70;;;;;;;22.53;52.00;101624.97;1807316;76;21124;-45
2021/10/02 12:03:29;;;;;;;108.55;26.80;;;;;;;22.51;51.98;101623.09;1820380;76;21158;-43
2021/10/02 12:05:59;;;;;;;29.55;10.55;;;;;;;22.50;52.13;101622.83;1818146;76;21077;-46
2021/10/02 12:08:26;;;;;;;28.90;9.43;;;;;;;22.50;52.49;101624.78;1823415;76;21036;-46
2021/10/02 12:11:03;;;;;;;100.90;27.85;;;;;;;22.50;52.87;101619.23;1826938;76;21055;-43
2021/10/02 12:13:33;;;;;;;14.60;4.80;;;;;;;22.49;52.97;101621.18;1819023;76;21199;-41
2021/10/02 12:16:07;;;;;;;47.38;13.18;;;;;;;22.53;53.20;101620.81;1826539;76;21460;-43
2021/10/02 12:19:06;;;;;;;78.57;22.90;;;;;;;22.59;53.37;101615.98;1793631;78;21570;-41
2021/10/02 12:21:36;;;;;;;43.00;12.45;;;;;;;22.64;53.74;101619.47;1821904;76;21077;-41